Time,TemperatureF,DewpointF,PressureIn,WindDirection,WindDirectionDegrees,WindSpeedMPH,WindSpeedGustMPH,Humidity,HourlyPrecipIn,Conditions,Clouds,dailyrainin,SoftwareType,DateUTC
2013-01-07 00:03:00,34.0,31.0,30.19,WNW,293,0.0,0.0,88,0.00,,,0.01,,2013-01-07 05:03:00,
2013-01-07 00:12:00,34.0,31.0,30.19,WNW,293,0.0,0.0,88,0.00,,,0.01,,2013-01-07 05:12:00,
2013-01-07 00:22:00,33.0,30.0,30.19,WNW,293,0.0,1.0,89,0.00,,,0.01,,2013-01-07 05:22:00,
2013-01-07 00:33:00,33.0,30.0,30.20,WNW,293,0.0,0.0,89,0.00,,,0.01,,2013-01-07 05:33:00,
2013-01-07 00:42:00,33.0,30.0,30.20,WNW,293,0.0,0.0,89,0.00,,,0.01,,2013-01-07 05:42:00,
2013-01-07 00:53:00,32.0,29.0,30.19,WNW,293,0.0,0.0,90,0.00,,,0.01,,2013-01-07 05:53:00,
2013-01-07 01:02:00,32.0,29.0,30.19,WNW,293,0.0,0.0,90,0.00,,,0.01,,2013-01-07 06:02:00,
2013-01-07 01:12:00,32.0,29.0,30.19,WNW,293,0.0,0.0,90,0.00,,,0.01,,2013-01-07 06:12:00,
2013-01-07 01:22:00,31.0,28.0,30.19,WNW,293,0.0,0.0,90,0.00,,,0.01,,2013-01-07 06:22:00,
2013-01-07 01:32:00,31.0,29.0,30.19,WNW,293,0.0,0.0,91,0.00,,,0.00,,2013-01-07 06:32:00,
2013-01-07 01:42:00,31.0,29.0,30.19,WNW,293,0.0,0.0,91,0.00,,,0.00,,2013-01-07 06:42:00,
2013-01-07 01:52:00,30.0,28.0,30.19,WNW,293,0.0,0.0,91,0.00,,,0.00,,2013-01-07 06:52:00,
2013-01-07 02:02:00,30.0,28.0,30.20,WNW,293,0.0,1.0,91,0.00,,,0.00,,2013-01-07 07:02:00,
2013-01-07 02:12:00,30.0,28.0,30.20,WNW,293,0.0,1.0,91,0.00,,,0.00,,2013-01-07 07:12:00,
2013-01-07 02:22:00,29.0,27.0,30.19,WNW,294,1.0,2.0,92,0.00,,,0.00,,2013-01-07 07:22:00,
2013-01-07 02:33:00,29.0,27.0,30.20,WNW,293,1.0,2.0,92,0.00,,,0.00,,2013-01-07 07:33:00,
2013-01-07 02:42:00,29.0,27.0,30.20,WNW,293,1.0,2.0,92,0.00,,,0.00,,2013-01-07 07:42:00,
2013-01-07 02:53:00,29.0,27.0,30.20,WNW,293,1.0,2.0,92,0.00,,,0.00,,2013-01-07 07:53:00,
2013-01-07 03:03:00,29.0,27.0,30.21,ESE,105,2.0,4.0,92,0.00,,,0.00,,2013-01-07 08:03:00,
2013-01-07 03:12:00,29.0,27.0,30.21,ESE,105,2.0,4.0,92,0.00,,,0.00,,2013-01-07 08:12:00,
2013-01-07 03:22:00,29.0,27.0,30.22,SSW,210,0.0,2.0,93,0.00,,,0.00,,2013-01-07 08:22:00,
2013-01-07 03:33:00,28.0,26.0,30.21,SSW,210,0.0,2.0,93,0.00,,,0.00,,2013-01-07 08:33:00,
2013-01-07 03:42:00,28.0,26.0,30.21,SSW,210,0.0,2.0,93,0.00,,,0.00,,2013-01-07 08:42:00,
2013-01-07 03:53:00,28.0,26.0,30.22,West,274,2.0,4.0,93,0.00,,,0.00,,2013-01-07 08:53:00,
2013-01-07 04:02:00,28.0,26.0,30.22,West,274,2.0,4.0,93,0.00,,,0.00,,2013-01-07 09:02:00,
2013-01-07 04:12:00,28.0,26.0,30.22,West,274,2.0,4.0,93,0.00,,,0.00,,2013-01-07 09:12:00,
2013-01-07 04:23:00,28.0,26.0,30.24,West,272,1.0,3.0,93,0.00,,,0.00,,2013-01-07 09:23:00,
2013-01-07 04:32:00,28.0,26.0,30.24,West,272,0.0,0.0,93,0.00,,,0.00,,2013-01-07 09:32:00,
2013-01-07 04:42:00,28.0,26.0,30.24,West,272,0.0,0.0,93,0.00,,,0.00,,2013-01-07 09:42:00,
2013-01-07 04:53:00,28.0,26.0,30.24,West,275,0.0,0.0,93,0.00,,,0.00,,2013-01-07 09:53:00,
2013-01-07 05:02:00,28.0,26.0,30.25,West,275,0.0,1.0,93,0.00,,,0.00,,2013-01-07 10:02:00,
2013-01-07 05:12:00,28.0,26.0,30.25,West,275,0.0,1.0,93,0.00,,,0.00,,2013-01-07 10:12:00,
2013-01-07 05:22:00,28.0,26.0,30.25,SSE,160,0.0,1.0,93,0.00,,,0.00,,2013-01-07 10:22:00,
2013-01-07 05:32:00,28.0,26.0,30.25,SSE,160,0.0,1.0,93,0.00,,,0.00,,2013-01-07 10:32:00,
2013-01-07 05:42:00,28.0,26.0,30.25,SSE,160,0.0,1.0,93,0.00,,,0.00,,2013-01-07 10:42:00,
2013-01-07 05:52:00,28.0,26.0,30.26,WSW,255,0.0,2.0,93,0.00,,,0.00,,2013-01-07 10:52:00,
2013-01-07 06:02:00,28.0,26.0,30.27,SE,142,0.0,4.0,93,0.00,,,0.00,,2013-01-07 11:02:00,
2013-01-07 06:12:00,28.0,26.0,30.27,SE,142,0.0,4.0,93,0.00,,,0.00,,2013-01-07 11:12:00,
2013-01-07 06:23:00,28.0,26.0,30.26,SE,142,0.0,3.0,93,0.00,,,0.00,,2013-01-07 11:23:00,
2013-01-07 06:33:00,28.0,26.0,30.27,SE,142,0.0,1.0,93,0.00,,,0.00,,2013-01-07 11:33:00,
2013-01-07 06:43:00,28.0,26.0,30.27,SE,142,0.0,1.0,93,0.00,,,0.00,,2013-01-07 11:43:00,
2013-01-07 06:53:00,28.0,26.0,30.28,SE,138,1.0,5.0,93,0.00,,,0.00,,2013-01-07 11:53:00,
2013-01-07 07:03:00,28.0,26.0,30.28,SE,138,0.0,2.0,93,0.00,,,0.00,,2013-01-07 12:03:00,
2013-01-07 07:12:00,28.0,26.0,30.28,SE,138,0.0,2.0,93,0.00,,,0.00,,2013-01-07 12:12:00,
2013-01-07 07:23:00,27.0,25.0,30.29,SE,138,0.0,2.0,92,0.00,,,0.00,,2013-01-07 12:23:00,
2013-01-07 08:33:00,27.0,25.0,30.32,SSW,208,0.0,1.0,92,0.00,,,0.00,,2013-01-07 13:33:00,
2013-01-07 08:43:00,27.0,25.0,30.32,SSW,208,0.0,1.0,92,0.00,,,0.00,,2013-01-07 13:43:00,
2013-01-07 08:53:00,27.0,25.0,30.33,SW,227,0.0,2.0,93,0.00,,,0.00,,2013-01-07 13:53:00,
2013-01-07 09:03:00,28.0,26.0,30.34,SW,227,0.0,2.0,93,0.00,,,0.00,,2013-01-07 14:03:00,
2013-01-07 09:13:00,28.0,26.0,30.34,SW,227,0.0,2.0,93,0.00,,,0.00,,2013-01-07 14:13:00,
2013-01-07 09:23:00,32.0,31.0,30.35,SSW,202,0.0,2.0,95,0.00,,,0.00,,2013-01-07 14:23:00,
2013-01-07 09:33:00,35.0,33.0,30.35,SE,137,1.0,3.0,93,0.01,,,0.01,,2013-01-07 14:33:00,
2013-01-07 09:43:00,35.0,33.0,30.35,SE,137,1.0,3.0,93,0.01,,,0.01,,2013-01-07 14:43:00,
2013-01-07 09:53:00,37.0,35.0,30.36,SE,137,0.0,2.0,93,0.01,,,0.01,,2013-01-07 14:53:00,
2013-01-07 10:03:00,40.0,35.0,30.37,ENE,70,1.0,2.0,83,0.01,,,0.01,,2013-01-07 15:03:00,
2013-01-07 10:12:00,40.0,35.0,30.37,ENE,70,1.0,2.0,83,0.01,,,0.01,,2013-01-07 15:12:00,
2013-01-07 10:23:00,40.0,35.0,30.37,ENE,70,1.0,2.0,83,0.01,,,0.01,,2013-01-07 15:23:00,
2013-01-07 10:33:00,46.0,33.0,30.39,ESE,104,1.0,3.0,60,0.00,,,0.01,,2013-01-07 15:33:00,
2013-01-07 10:43:00,46.0,33.0,30.39,ESE,104,1.0,3.0,60,0.00,,,0.01,,2013-01-07 15:43:00,
2013-01-07 10:53:00,48.0,34.0,30.39,ENE,61,2.0,5.0,57,0.00,,,0.01,,2013-01-07 15:53:00,
2013-01-07 11:03:00,48.0,32.0,30.40,ENE,61,2.0,5.0,54,0.00,,,0.01,,2013-01-07 16:03:00,
2013-01-07 11:12:00,48.0,32.0,30.40,ENE,61,2.0,5.0,54,0.00,,,0.01,,2013-01-07 16:12:00,
2013-01-07 11:23:00,49.0,33.0,30.40,ENE,57,2.0,7.0,53,0.00,,,0.01,,2013-01-07 16:23:00,
2013-01-07 11:33:00,48.0,31.0,30.40,ESE,117,3.0,12.0,52,0.00,,,0.01,,2013-01-07 16:33:00,
2013-01-07 11:43:00,48.0,31.0,30.40,ESE,117,3.0,12.0,52,0.00,,,0.01,,2013-01-07 16:43:00,
2013-01-07 11:53:00,49.0,32.0,30.39,ESE,117,5.0,11.0,52,0.00,,,0.01,,2013-01-07 16:53:00,
2013-01-07 12:03:00,49.0,32.0,30.38,ESE,109,3.0,8.0,52,0.00,,,0.01,,2013-01-07 17:03:00,
2013-01-07 12:12:00,49.0,32.0,30.38,ESE,109,3.0,8.0,52,0.00,,,0.01,,2013-01-07 17:12:00,
2013-01-07 12:23:00,50.0,33.0,30.37,SSE,162,3.0,9.0,51,0.00,,,0.01,,2013-01-07 17:23:00,
2013-01-07 12:33:00,51.0,33.0,30.36,ESE,108,2.0,5.0,49,0.00,,,0.01,,2013-01-07 17:33:00,
2013-01-07 12:42:00,51.0,33.0,30.36,ESE,108,2.0,5.0,49,0.00,,,0.01,,2013-01-07 17:42:00,
2013-01-07 12:53:00,51.0,31.0,30.35,ENE,57,2.0,6.0,46,0.00,,,0.01,,2013-01-07 17:53:00,
2013-01-07 13:03:00,51.0,32.0,30.35,ESE,112,5.0,10.0,48,0.00,,,0.01,,2013-01-07 18:03:00,
2013-01-07 13:13:00,51.0,32.0,30.35,ESE,112,5.0,10.0,48,0.00,,,0.01,,2013-01-07 18:13:00,
2013-01-07 13:23:00,52.0,32.0,30.34,SE,136,2.0,10.0,46,0.00,,,0.01,,2013-01-07 18:23:00,
2013-01-07 13:33:00,53.0,33.0,30.33,East,90,1.0,8.0,47,0.00,,,0.01,,2013-01-07 18:33:00,
2013-01-07 13:43:00,53.0,33.0,30.33,East,90,1.0,8.0,47,0.00,,,0.01,,2013-01-07 18:43:00,
2013-01-07 13:53:00,52.0,31.0,30.33,SE,129,5.0,10.0,44,0.00,,,0.01,,2013-01-07 18:53:00,
2013-01-07 14:03:00,52.0,30.0,30.33,SSE,153,0.0,8.0,43,0.00,,,0.01,,2013-01-07 19:03:00,
2013-01-07 14:12:00,52.0,30.0,30.33,SSE,153,0.0,8.0,43,0.00,,,0.01,,2013-01-07 19:12:00,
2013-01-07 14:23:00,54.0,33.0,30.32,NE,38,1.0,5.0,44,0.00,,,0.01,,2013-01-07 19:23:00,
2013-01-07 14:33:00,53.0,31.0,30.32,SE,131,8.0,13.0,42,0.00,,,0.01,,2013-01-07 19:33:00,
2013-01-07 14:43:00,53.0,31.0,30.32,SE,131,8.0,13.0,42,0.00,,,0.01,,2013-01-07 19:43:00,
2013-01-07 14:53:00,53.0,30.0,30.32,ESE,120,6.0,10.0,41,0.00,,,0.01,,2013-01-07 19:53:00,
2013-01-07 15:03:00,53.0,29.0,30.32,SE,132,4.0,10.0,40,0.00,,,0.01,,2013-01-07 20:03:00,
2013-01-07 15:12:00,53.0,29.0,30.32,SE,132,4.0,10.0,40,0.00,,,0.01,,2013-01-07 20:12:00,
2013-01-07 15:23:00,54.0,30.0,30.32,East,91,5.0,9.0,40,0.00,,,0.01,,2013-01-07 20:23:00,
2013-01-07 15:33:00,54.0,30.0,30.32,ESE,103,4.0,10.0,40,0.00,,,0.01,,2013-01-07 20:33:00,
2013-01-07 15:42:00,54.0,30.0,30.32,ESE,103,4.0,10.0,40,0.00,,,0.01,,2013-01-07 20:42:00,
2013-01-07 15:53:00,53.0,29.0,30.32,SSE,147,3.0,11.0,39,0.00,,,0.01,,2013-01-07 20:53:00,
2013-01-07 16:03:00,54.0,30.0,30.33,ESE,109,1.0,7.0,39,0.00,,,0.01,,2013-01-07 21:03:00,
2013-01-07 16:12:00,54.0,30.0,30.33,ESE,109,1.0,7.0,39,0.00,,,0.01,,2013-01-07 21:12:00,
2013-01-07 16:23:00,54.0,30.0,30.33,ENE,67,1.0,5.0,40,0.00,,,0.01,,2013-01-07 21:23:00,
2013-01-07 16:33:00,53.0,30.0,30.34,ESE,115,1.0,12.0,41,0.00,,,0.01,,2013-01-07 21:33:00,
2013-01-07 16:43:00,53.0,30.0,30.34,ESE,115,1.0,12.0,41,0.00,,,0.01,,2013-01-07 21:43:00,
2013-01-07 16:53:00,53.0,30.0,30.34,SE,135,4.0,7.0,41,0.00,,,0.01,,2013-01-07 21:53:00,
2013-01-07 17:03:00,52.0,30.0,30.34,ENE,78,0.0,4.0,43,0.00,,,0.01,,2013-01-07 22:03:00,
2013-01-07 17:12:00,52.0,30.0,30.34,ENE,78,0.0,4.0,43,0.00,,,0.01,,2013-01-07 22:12:00,
2013-01-07 17:23:00,51.0,30.0,30.35,East,100,0.0,2.0,45,0.00,,,0.01,,2013-01-07 22:23:00,
2013-01-07 17:33:00,51.0,30.0,30.35,East,100,0.0,2.0,45,0.00,,,0.01,,2013-01-07 22:33:00,
2013-01-07 17:43:00,51.0,30.0,30.35,East,100,0.0,2.0,45,0.00,,,0.01,,2013-01-07 22:43:00,
2013-01-07 17:53:00,50.0,30.0,30.35,East,101,1.0,2.0,46,0.00,,,0.01,,2013-01-07 22:53:00,
2013-01-07 18:02:00,49.0,30.0,30.34,East,101,0.0,1.0,48,0.00,,,0.01,,2013-01-07 23:02:00,
2013-01-07 18:12:00,49.0,30.0,30.34,East,101,0.0,1.0,48,0.00,,,0.01,,2013-01-07 23:12:00,
2013-01-07 18:23:00,46.0,30.0,30.35,East,101,0.0,0.0,54,0.00,,,0.01,,2013-01-07 23:23:00,
2013-01-07 18:33:00,45.0,32.0,30.36,East,101,0.0,0.0,61,0.00,,,0.01,,2013-01-07 23:33:00,
2013-01-07 18:43:00,45.0,32.0,30.36,East,101,0.0,0.0,61,0.00,,,0.01,,2013-01-07 23:43:00,
2013-01-07 18:53:00,43.0,32.0,30.36,East,101,0.0,0.0,65,0.00,,,0.01,,2013-01-07 23:53:00,
2013-01-07 19:03:00,41.0,31.0,30.36,East,101,0.0,0.0,66,0.00,,,0.01,,2013-01-08 00:03:00,
2013-01-07 19:12:00,41.0,31.0,30.36,East,101,0.0,0.0,66,0.00,,,0.01,,2013-01-08 00:12:00,
2013-01-07 19:22:00,40.0,32.0,30.36,East,101,0.0,0.0,72,0.00,,,0.01,,2013-01-08 00:22:00,
2013-01-07 19:33:00,39.0,32.0,30.36,East,101,0.0,0.0,76,0.00,,,0.01,,2013-01-08 00:33:00,
2013-01-07 19:42:00,39.0,32.0,30.36,East,101,0.0,0.0,76,0.00,,,0.01,,2013-01-08 00:42:00,
2013-01-07 19:53:00,38.0,31.0,30.37,East,101,0.0,1.0,77,0.00,,,0.01,,2013-01-08 00:53:00,
2013-01-07 20:03:00,37.0,31.0,30.37,East,101,0.0,0.0,79,0.00,,,0.01,,2013-01-08 01:03:00,
2013-01-07 20:12:00,37.0,31.0,30.37,East,101,0.0,0.0,79,0.00,,,0.01,,2013-01-08 01:12:00,
2013-01-07 20:22:00,37.0,31.0,30.37,East,101,0.0,0.0,80,0.00,,,0.01,,2013-01-08 01:22:00,
2013-01-07 20:33:00,36.0,32.0,30.36,East,101,0.0,1.0,84,0.00,,,0.01,,2013-01-08 01:33:00,
2013-01-07 20:42:00,36.0,32.0,30.36,East,101,0.0,1.0,84,0.00,,,0.01,,2013-01-08 01:42:00,
2013-01-07 20:53:00,35.0,31.0,30.37,East,101,0.0,0.0,84,0.00,,,0.01,,2013-01-08 01:53:00,
2013-01-07 21:02:00,34.0,30.0,30.37,East,101,0.0,0.0,85,0.00,,,0.01,,2013-01-08 02:02:00,
2013-01-07 21:12:00,34.0,30.0,30.37,East,101,0.0,0.0,85,0.00,,,0.01,,2013-01-08 02:12:00,
2013-01-07 21:22:00,34.0,31.0,30.38,East,101,0.0,0.0,87,0.00,,,0.01,,2013-01-08 02:22:00,
2013-01-07 21:33:00,34.0,30.0,30.38,East,101,0.0,0.0,86,0.00,,,0.01,,2013-01-08 02:33:00,
2013-01-07 21:42:00,34.0,30.0,30.38,East,101,0.0,0.0,86,0.00,,,0.01,,2013-01-08 02:42:00,
2013-01-07 21:53:00,33.0,30.0,30.39,East,101,0.0,1.0,87,0.00,,,0.01,,2013-01-08 02:53:00,
2013-01-07 22:03:00,32.0,29.0,30.38,East,101,0.0,0.0,87,0.00,,,0.01,,2013-01-08 03:03:00,
2013-01-07 22:12:00,32.0,29.0,30.38,East,101,0.0,0.0,87,0.00,,,0.01,,2013-01-08 03:12:00,
2013-01-07 22:22:00,32.0,29.0,30.37,East,101,0.0,0.0,89,0.00,,,0.01,,2013-01-08 03:22:00,
2013-01-07 22:32:00,31.0,28.0,30.38,East,101,0.0,0.0,89,0.00,,,0.01,,2013-01-08 03:32:00,
2013-01-07 22:43:00,31.0,28.0,30.38,East,101,0.0,0.0,89,0.00,,,0.01,,2013-01-08 03:43:00,
2013-01-07 22:53:00,31.0,28.0,30.38,East,101,0.0,1.0,89,0.00,,,0.01,,2013-01-08 03:53:00,
2013-01-07 23:02:00,31.0,28.0,30.38,East,101,0.0,0.0,90,0.00,,,0.01,,2013-01-08 04:02:00,
2013-01-07 23:12:00,31.0,28.0,30.38,East,101,0.0,0.0,90,0.00,,,0.01,,2013-01-08 04:12:00,
2013-01-07 23:22:00,30.0,27.0,30.38,East,101,0.0,0.0,90,0.00,,,0.01,,2013-01-08 04:22:00,
2013-01-07 23:32:00,30.0,27.0,30.38,East,101,0.0,0.0,90,0.00,,,0.01,,2013-01-08 04:32:00,
2013-01-07 23:42:00,30.0,27.0,30.38,East,101,0.0,0.0,90,0.00,,,0.01,,2013-01-08 04:42:00,
2013-01-07 23:52:00,29.0,26.0,30.38,East,101,0.0,0.0,90,0.00,,,0.01,,2013-01-08 04:52:00,